Stormwatcher's Retreat Logo




                  Temp     Hi    Low   Out    Dew  Wind  Wind   Wind    Hi    Hi   Wind   Heat    THW   THSW                Rain  Solar   Solar Hi Solar   UV    UV    Hi     Heat    Cool    In     In    In     In     In   In Air          Wind  Wind    ISS   Arc.
  Date    Time     Out   Temp   Temp   Hum    Pt. Speed   Dir    Run Speed   Dir  Chill  Index  Index  Index   Bar    Rain  Rate   Rad.  Energy    Rad.  Index  Dose   UV     D-D     D-D    Temp   Hum    Dew   Heat    EMC Density     ET   Samp   Tx   Recept  Int.
------------------------------------------------------------------------------------------------------------------------------------------------------------------------------------------------------------------------------------------------------------------------
 7/16/18 12:10a   57.0   57.4   57.0    92   54.7   3.0    NE   0.50   6.0   ENE   57.0   57.1   57.1   54.2  30.028  0.00  0.00     0     0.00      0     0.0  0.00   0.0   0.056   0.000   73.5    59   58.3   74.0  10.81  .0735    0.000   211    5    100.0   10 
 7/16/18 12:20a   57.1   57.1   56.9    93   55.1   2.0   ENE   0.33   7.0   ENE   57.1   57.3   57.3   54.5  30.029  0.00  0.00     0     0.00      0     0.0  0.00   0.0   0.055   0.000   73.5    59   58.3   74.0  10.81  .0735    0.000   212    5    100.0   10 
 7/16/18 12:30a   57.5   57.5   57.1    93   55.5   4.0    NE   0.67   7.0     E   57.5   57.7   57.7   54.9  30.028  0.00  0.00     0     0.00      0     0.0  0.00   0.0   0.052   0.000   73.5    59   58.3   74.0  10.81  .0735    0.000   214    5    100.0   10 
 7/16/18 12:40a   58.0   58.0   57.5    93   56.0   4.0   ENE   0.67   9.0   ENE   58.0   58.2   58.2   55.4  30.033  0.00  0.00     0     0.00      0     0.0  0.00   0.0   0.049   0.000   73.5    59   58.3   74.0  10.81  .0735    0.000   212    5    100.0   10 
 7/16/18 12:50a   58.7   58.7   58.0    93   56.7   6.0   ENE   1.00  12.0     E   58.0   59.0   58.3   55.5  30.035  0.00  0.00     0     0.00      0     0.0  0.00   0.0   0.044   0.000   73.5    59   58.3   74.0  10.81  .0735    0.000   209    5    100.0   10 
 7/16/18  1:00a   58.9   58.9   58.7    93   56.9   5.0   ENE   0.83  11.0   ENE   58.7   59.2   59.0   56.2  30.036  0.00  0.00     0     0.00      0     0.0  0.00   0.0   0.042   0.000   73.5    59   58.3   74.0  10.81  .0735    0.000   214    5    100.0   10 
 7/16/18  1:10a   59.1   59.1   58.9    93   57.1   6.0   ENE   1.00  13.0   ENE   58.5   59.4   58.8   56.1  30.038  0.00  0.00     0     0.00      0     0.0  0.00   0.0   0.041   0.000   73.5    59   58.3   74.0  10.81  .0735    0.000   212    5    100.0   10 
 7/16/18  1:20a   59.2   59.2   59.1    93   57.2   5.0   ENE   0.83  11.0     E   59.0   59.5   59.3   56.6  30.039  0.00  0.00     0     0.00      0     0.0  0.00   0.0   0.040   0.000   73.4    59   58.2   73.8  10.81  .0735    0.000   212    5    100.0   10 
 7/16/18  1:30a   59.3   59.3   59.2    93   57.3   7.0   ENE   1.17  13.0   ENE   58.4   59.6   58.7   56.0  30.037  0.00  0.00     0     0.00      0     0.0  0.00   0.0   0.040   0.000   73.4    59   58.2   73.8  10.81  .0735    0.000   214    5    100.0   10 
 7/16/18  1:40a   59.3   59.3   59.3    93   57.3   6.0   ENE   1.00  14.0   ENE   58.8   59.6   59.1   56.4  30.035  0.00  0.00     0     0.00      0     0.0  0.00   0.0   0.040   0.000   73.4    59   58.2   73.8  10.81  .0735    0.000   206    5     99.5   10 
 7/16/18  1:50a   59.3   59.3   59.3    93   57.3   6.0   ENE   1.00  14.0   ENE   58.8   59.6   59.1   56.4  30.036  0.00  0.00     0     0.00      0     0.0  0.00   0.0   0.040   0.000   73.4    58   57.7   73.7  10.61  .0735    0.000   209    5    100.0   10 
 7/16/18  2:00a   59.2   59.3   59.2    93   57.2   5.0   ENE   0.83  11.0    NE   59.0   59.5   59.3   56.6  30.035  0.00  0.00     0     0.00      0     0.0  0.00   0.0   0.040   0.000   73.3    58   57.6   73.6  10.62  .0736    0.000   212    5    100.0   10 
 7/16/18  2:10a   59.2   59.2   59.2    93   57.2   5.0   ENE   0.83  12.0   ENE   59.0   59.5   59.3   56.6  30.033  0.00  0.00     0     0.00      0     0.0  0.00   0.0   0.040   0.000   73.3    58   57.6   73.6  10.62  .0735    0.000   212    5    100.0   10 
 7/16/18  2:20a   59.2   59.2   59.2    93   57.2   6.0   ENE   1.00  15.0    NE   58.6   59.5   58.9   56.2  30.035  0.00  0.00     0     0.00      0     0.0  0.00   0.0   0.040   0.000   73.3    58   57.6   73.6  10.62  .0736    0.000   207    5    100.0   10 
 7/16/18  2:30a   59.1   59.2   59.1    93   57.1   6.0   ENE   1.00  12.0    NE   58.5   59.4   58.8   56.1  30.035  0.00  0.00     0     0.00      0     0.0  0.00   0.0   0.041   0.000   73.3    58   57.6   73.6  10.62  .0736    0.000   211    5    100.0   10 
 7/16/18  2:40a   59.0   59.1   58.9    93   57.0   6.0   ENE   1.00  11.0   NNE   58.4   59.3   58.7   55.9  30.035  0.00  0.00     0     0.00      0     0.0  0.00   0.0   0.042   0.000   73.3    58   57.6   73.6  10.62  .0736    0.000   212    5    100.0   10 
 7/16/18  2:50a   59.0   59.0   58.9    93   57.0   5.0   ENE   0.83  11.0   ENE   58.8   59.3   59.1   56.3  30.033  0.00  0.00     0     0.00      0     0.0  0.00   0.0   0.042   0.000   73.3    58   57.6   73.6  10.62  .0735    0.000   213    5    100.0   10 
 7/16/18  3:00a   59.0   59.1   59.0    94   57.3   5.0   ENE   0.83  10.0    NE   58.8   59.4   59.2   56.5  30.032  0.00  0.00     0     0.00      0     0.0  0.00   0.0   0.042   0.000   73.3    58   57.6   73.6  10.62  .0735    0.000   214    5    100.0   10 
 7/16/18  3:10a   59.1   59.1   59.0    94   57.4   6.0   ENE   1.00  11.0   ENE   58.5   59.5   58.9   56.2  30.032  0.00  0.00     0     0.00      0     0.0  0.00   0.0   0.041   0.000   73.2    58   57.5   73.5  10.62  .0736    0.000   213    5    100.0   10 
 7/16/18  3:20a   59.1   59.1   59.0    94   57.4   6.0   ENE   1.00  12.0    NE   58.5   59.5   58.9   56.2  30.032  0.00  0.00     0     0.00      0     0.0  0.00   0.0   0.041   0.000   73.2    58   57.5   73.5  10.62  .0736    0.000   209    5    100.0   10 
 7/16/18  3:30a   59.1   59.1   59.1    94   57.4   6.0   ENE   1.00  13.0   ENE   58.5   59.5   58.9   56.2  30.033  0.00  0.00     0     0.00      0     0.0  0.00   0.0   0.041   0.000   73.2    58   57.5   73.5  10.62  .0736    0.000   212    5    100.0   10 
 7/16/18  3:40a   58.9   59.1   58.9    94   57.2   6.0   ENE   1.00  14.0   ENE   58.3   59.3   58.7   56.0  30.036  0.00  0.00     0     0.00      0     0.0  0.00   0.0   0.042   0.000   73.1    58   57.4   73.4  10.63  .0736    0.000   212    5    100.0   10 
 7/16/18  3:50a   58.9   58.9   58.8    94   57.2   6.0   ENE   1.00  14.0   NNE   58.3   59.3   58.7   56.0  30.038  0.00  0.00     0     0.00      0     0.0  0.00   0.0   0.042   0.000   73.1    58   57.4   73.4  10.63  .0736    0.000   210    5    100.0   10 
 7/16/18  4:00a   58.7   58.9   58.7    94   57.0   5.0   ENE   0.83  12.0    NE   58.4   59.0   58.7   55.9  30.034  0.00  0.00     0     0.00      0     0.0  0.00   0.0   0.044   0.000   73.1    58   57.4   73.4  10.63  .0736    0.000   212    5    100.0   10 
 7/16/18  4:10a   58.6   58.7   58.6    94   56.9   6.0   ENE   1.00  11.0     E   57.9   58.9   58.2   55.4  30.035  0.00  0.00     0     0.00      0     0.0  0.00   0.0   0.044   0.000   73.1    58   57.4   73.4  10.63  .0736    0.000   212    5    100.0   10 
 7/16/18  4:20a   58.5   58.6   58.5    94   56.8   7.0   ENE   1.17  16.0   ENE   57.4   58.8   57.7   54.9  30.036  0.00  0.00     0     0.00      0     0.0  0.00   0.0   0.045   0.000   73.0    58   57.3   73.2  10.63  .0736    0.000   211    5    100.0   10 
 7/16/18  4:30a   58.4   58.5   58.4    94   56.7   7.0   ENE   1.17  13.0    NE   57.3   58.7   57.6   54.8  30.037  0.00  0.00     0     0.00      0     0.0  0.00   0.0   0.046   0.000   73.0    58   57.3   73.2  10.63  .0736    0.000   213    5    100.0   10 
 7/16/18  4:40a   58.3   58.4   58.3    94   56.6   7.0   ENE   1.17  14.0    NE   57.2   58.6   57.5   54.7  30.037  0.00  0.00     0     0.00      0     0.0  0.00   0.0   0.047   0.000   73.0    58   57.3   73.2  10.63  .0736    0.000   210    5    100.0   10 
 7/16/18  4:50a   58.3   58.3   58.2    94   56.6   8.0   ENE   1.33  17.0   ENE   56.5   58.6   56.8   54.1  30.039  0.00  0.00     0     0.00      0     0.0  0.00   0.0   0.047   0.000   72.9    58   57.3   73.1  10.63  .0736    0.000   211    5    100.0   10 
 7/16/18  5:00a   58.2   58.3   58.2    94   56.5   6.0   ENE   1.00  13.0    NE   57.4   58.5   57.7   54.9  30.040  0.00  0.00     0     0.00      0     0.0  0.00   0.0   0.047   0.000   72.9    58   57.3   73.1  10.63  .0736    0.000   213    5    100.0   10 
 7/16/18  5:10a   58.2   58.3   58.2    94   56.5   8.0   ENE   1.33  17.0   ENE   56.3   58.5   56.6   53.9  30.039  0.00  0.00     0     0.00      0     0.0  0.00   0.0   0.047   0.000   72.9    58   57.3   73.1  10.63  .0736    0.000   211    5    100.0   10 
 7/16/18  5:20a   58.2   58.2   58.2    95   56.8   8.0   ENE   1.33  13.0   ENE   56.3   58.5   56.6   53.9  30.041  0.00  0.00     0     0.00      0     0.0  0.00   0.0   0.047   0.000   72.9    58   57.3   73.1  10.63  .0736    0.000   211    5    100.0   10 
 7/16/18  5:30a   58.2   58.2   58.2    95   56.8   6.0   ENE   1.00  16.0   ENE   57.4   58.5   57.7   54.9  30.042  0.00  0.00     0     0.00      0     0.0  0.00   0.0   0.047   0.000   72.9    58   57.3   73.1  10.63  .0736    0.000   212    5    100.0   10 
 7/16/18  5:40a   58.1   58.2   58.1    94   56.4   6.0   ENE   1.00  16.0   ENE   57.3   58.4   57.6   54.8  30.044  0.00  0.00     0     0.00      0     0.0  0.00   0.0   0.048   0.000   72.8    58   57.2   72.9  10.64  .0737    0.000   211    5    100.0   10 
 7/16/18  5:50a   58.0   58.1   58.0    94   56.3   7.0   ENE   1.17  13.0   ENE   56.8   58.3   57.1   54.3  30.048  0.00  0.00     0     0.00      0     0.0  0.00   0.0   0.049   0.000   72.8    58   57.2   72.9  10.64  .0737    0.000   212    5    100.0   10 
 7/16/18  6:00a   58.0   58.0   57.9    95   56.6   6.0   ENE   1.00  14.0    NE   57.2   58.3   57.5   54.8  30.049  0.00  0.00     1     0.01      5     0.0  0.00   0.0   0.049   0.000   72.8    58   57.2   72.9  10.64  .0737    0.000   212    5    100.0   10 
 7/16/18  6:10a   58.0   58.0   58.0    95   56.6   6.0   ENE   1.00  13.0     E   57.2   58.3   57.5   54.9  30.053  0.00  0.00     6     0.09      7     0.0  0.00   0.0   0.049   0.000   72.7    58   57.1   72.8  10.64  .0737    0.000   211    5    100.0   10 
 7/16/18  6:20a   57.9   58.0   57.9    95   56.5   6.0    NE   1.00  12.0   ENE   57.1   58.2   57.4   54.9  30.055  0.00  0.00    10     0.14     12     0.0  0.00   0.0   0.049   0.000   72.7    58   57.1   72.8  10.64  .0737    0.000   212    5    100.0   10 
 7/16/18  6:30a   57.7   57.9   57.7    95   56.3   6.0   ENE   1.00  15.0    NE   56.8   58.0   57.1   54.7  30.057  0.00  0.00    15     0.22     16     0.0  0.00   0.0   0.051   0.000   72.7    58   57.1   72.8  10.64  .0737    0.000   214    5    100.0   10 
 7/16/18  6:40a   57.2   57.7   57.2    94   55.5   4.0    NE   0.67   8.0   NNE   57.2   57.4   57.4   55.0  30.058  0.00  0.00    19     0.27     21     0.0  0.00   0.0   0.054   0.000   72.7    58   57.1   72.8  10.64  .0737    0.000   211    5    100.0   10 
 7/16/18  6:50a   56.3   57.2   56.3    95   54.9   4.0   ENE   0.67  10.0   ENE   56.2   56.5   56.4   55.9  30.061  0.00  0.00    28     0.40     37     0.0  0.00   0.0   0.060   0.000   72.5    58   56.9   72.5  10.65  .0738    0.000   212    5    100.0   10 
 7/16/18  7:00a   56.2   56.4   56.2    95   54.8   3.0    NE   0.50   7.0    NE   56.2   56.4   56.4   56.3  30.063  0.00  0.00    36     0.52     44     0.0  0.00   0.0   0.061   0.000   72.4    58   56.8   72.3  10.65  .0738    0.001   212    5    100.0   10 
 7/16/18  7:10a   55.7   56.2   55.7    95   54.3   4.0    NE   0.67   9.0   NNE   55.4   55.9   55.6   55.5  30.067  0.00  0.00    39     0.56     40     0.0  0.00   0.0   0.065   0.000   72.3    58   56.7   72.2  10.66  .0738    0.000   185    5     89.4   10 
 7/16/18  7:20a   56.7   56.7   55.7    96   55.6   5.0   ENE   0.83  10.0   NNE   56.1   56.9   56.3   56.8  30.069  0.00  0.00    51     0.73     54     0.0  0.00   0.0   0.058   0.000   72.1    58   56.5   71.9  10.67  .0739    0.000   212    5    100.0   10 
 7/16/18  7:30a   57.3   57.3   56.7    95   55.9   5.0   ENE   0.83  15.0    NE   56.8   57.5   57.0   57.6  30.073  0.00  0.00    56     0.80     65     0.0  0.00   0.0   0.053   0.000   72.0    58   56.4   71.7  10.67  .0739    0.000   211    5    100.0   10 
 7/16/18  7:40a   57.6   57.6   57.3    95   56.2   5.0   ENE   0.83  13.0   ENE   57.1   57.9   57.4   58.1  30.073  0.00  0.00    59     0.85     72     0.0  0.00   0.0   0.051   0.000   71.9    58   56.3   71.6  10.67  .0739    0.000   212    5    100.0   10 
 7/16/18  7:50a   57.4   57.6   57.4    95   56.0   5.0    NE   0.83  10.0   NNE   56.9   57.6   57.1   58.3  30.073  0.00  0.00    74     1.06     90     0.0  0.00   0.0   0.053   0.000   71.8    58   56.2   71.5  10.68  .0739    0.000   212    5    100.0   10 
 7/16/18  8:00a   56.7   57.4   56.7    95   55.3   4.0    NE   0.67  10.0    NE   56.6   56.9   56.8   58.4  30.075  0.00  0.00    89     1.28    100     0.0  0.00   0.0   0.058   0.000   71.7    59   56.6   71.4  10.88  .0739    0.001   210    5    100.0   10 
 7/16/18  8:10a   55.9   56.7   55.9    95   54.5   5.0    NE   0.83   9.0    NE   55.2   56.1   55.4   57.8  30.075  0.00  0.00   115     1.65    128     0.0  0.00   0.0   0.063   0.000   71.7    58   56.1   71.3  10.68  .0739    0.000   213    5    100.0   10 
 7/16/18  8:20a   57.0   57.0   55.9    95   55.6   7.0    NE   1.17  12.0   NNE   55.6   57.2   55.8   57.8  30.076  0.00  0.00   106     1.52    137     0.0  0.00   0.0   0.056   0.000   71.6    58   56.0   71.2  10.69  .0740    0.000   214    5    100.0   10 
 7/16/18  8:30a   57.0   57.2   57.0    95   55.6   7.0    NE   1.17  12.0   ENE   55.6   57.2   55.8   58.4  30.080  0.00  0.00   128     1.83    132     0.0  0.00   0.0   0.056   0.000   71.4    59   56.3   71.0  10.89  .0740    0.000   213    5    100.0   10 
 7/16/18  8:40a   57.4   57.4   57.0    95   56.0   9.0    NE   1.50  15.0     E   54.6   57.6   54.8   57.3  30.084  0.00  0.00   135     1.94    144     0.0  0.00   0.0   0.053   0.000   71.3    59   56.2   70.8  10.90  .0740    0.000   213    5    100.0   10 
 7/16/18  8:50a   57.8   57.8   57.4    95   56.4   9.0   ENE   1.50  15.0   ENE   55.1   58.1   55.4   58.1  30.081  0.00  0.00   150     2.15    160     0.0  0.00   0.0   0.050   0.000   71.2    59   56.1   70.7  10.90  .0740    0.000   213    5    100.0   10 
 7/16/18  9:00a   58.0   58.0   57.8    95   56.6   8.0    NE   1.33  16.0    NE   56.1   58.3   56.4   59.4  30.085  0.00  0.00   160     2.29    178     0.0  0.00   0.0   0.049   0.000   71.1    59   56.0   70.5  10.91  .0740    0.003   211    5    100.0   10 
 7/16/18  9:10a   57.7   58.0   57.7    94   56.0   6.0   ENE   1.00  11.0   ENE   56.8   57.9   57.0   60.3  30.089  0.00  0.00   169     2.42    185     0.0  0.00   0.0   0.051   0.000   71.1    59   56.0   70.5  10.91  .0741    0.000   213    5    100.0   10 
 7/16/18  9:20a   57.6   57.7   57.6    95   56.2   5.0    NE   0.83  11.0   NNE   57.1   57.9   57.4   61.2  30.090  0.00  0.00   190     2.72    209     0.0  0.00   0.0   0.051   0.000   71.1    59   56.0   70.5  10.91  .0741    0.000   214    5    100.0   10 
 7/16/18  9:30a   57.4   57.6   57.3    94   55.7   7.0    NE   1.17  11.0   ENE   56.1   57.6   56.3   59.9  30.089  0.00  0.00   189     2.71    202     0.0  0.00   0.0   0.053   0.000   71.1    59   56.0   70.5  10.91  .0741    0.000   212    5    100.0   10 
 7/16/18  9:40a   57.5   57.7   57.5    94   55.8   7.0    NE   1.17  13.0   ENE   56.2   57.7   56.4   60.0  30.089  0.00  0.00   193     2.77    207     0.0  0.00   0.0   0.052   0.000   71.0    59   55.9   70.4  10.91  .0741    0.000   211    5    100.0   10 
 7/16/18  9:50a   57.6   57.7   57.5    94   55.9   8.0    NE   1.33  14.0    NE   55.6   57.8   55.8   60.1  30.089  0.00  0.00   235     3.37    246     0.0  0.00   0.0   0.051   0.000   71.0    59   55.9   70.4  10.91  .0741    0.000   214    5    100.0   10 
 7/16/18 10:00a   57.8   57.8   57.5    94   56.1   8.0    NE   1.33  13.0    NE   55.9   58.0   56.1   60.6  30.085  0.00  0.00   247     3.54    265     0.0  0.00   0.0   0.050   0.000   71.0    59   55.9   70.4  10.91  .0741    0.004   212    5    100.0   10 
 7/16/18 10:10a   57.9   57.9   57.8    94   56.2   8.0    NE   1.33  14.0    NE   56.0   58.2   56.3   61.0  30.083  0.00  0.00   267     3.83    271     0.0  0.00   0.0   0.049   0.000   71.1    59   56.0   70.5  10.91  .0740    0.000   212    5    100.0   10 
 7/16/18 10:20a   58.3   58.3   57.9    94   56.6   8.0    NE   1.33  14.0   ENE   56.5   58.6   56.8   61.5  30.084  0.00  0.00   271     3.88    308     0.0  0.00   0.0   0.047   0.000   71.2    59   56.1   70.7  10.90  .0740    0.000   212    5    100.0   10 
 7/16/18 10:30a   58.5   58.5   58.3    93   56.5   8.0    NE   1.33  14.0    NE   56.7   58.8   57.0   63.7  30.082  0.00  0.00   376     5.39    425     0.0  0.00   0.0   0.045   0.000   71.4    58   55.9   70.9  10.69  .0740    0.000   210    5    100.0   10 
 7/16/18 10:40a   58.6   58.6   58.5    93   56.6   8.0    NE   1.33  15.0    NE   56.8   58.9   57.1   64.7  30.082  0.00  0.00   433     6.21    461     0.0  0.00   0.0   0.044   0.000   71.5    58   55.9   71.0  10.69  .0740    0.000   213    5    100.0   10 
 7/16/18 10:50a   59.3   59.3   58.6    92   57.0   9.0    NE   1.50  15.0   ENE   56.9   59.6   57.2   63.6  30.081  0.00  0.00   384     5.50    397     0.0  0.00   0.0   0.040   0.000   71.6    58   56.0   71.2  10.69  .0740    0.000   214    5    100.0   10 
 7/16/18 11:00a   59.6   59.6   59.3    92   57.3  10.0    NE   1.67  16.0    NE   56.5   59.9   56.8   63.3  30.082  0.00  0.00   404     5.79    459     0.0  0.00   0.0   0.038   0.000   71.7    58   56.1   71.3  10.68  .0740    0.008   212    5    100.0   10 
 7/16/18 11:10a   59.6   59.7   59.5    92   57.3  10.0    NE   1.67  16.0   NNE   56.5   59.9   56.8   63.7  30.083  0.00  0.00   432     6.19    468     0.5  0.04   0.9   0.038   0.000   71.7    58   56.1   71.3  10.68  .0740    0.000   210    5    100.0   10 
 7/16/18 11:20a   60.0   60.0   59.6    91   57.4  10.0    NE   1.67  18.0    NE   57.0   60.3   57.3   65.3  30.083  0.00  0.00   520     7.45    603     1.2  0.09   1.8   0.035   0.000   71.8    58   56.2   71.5  10.68  .0739    0.000   212    5    100.0   10 
 7/16/18 11:30a   60.5   60.5   60.0    90   57.6   9.0    NE   1.50  15.0    NE   58.3   60.8   58.6   68.0  30.082  0.00  0.00   612     8.77    666     2.0  0.14   2.6   0.031   0.000   71.8    58   56.2   71.5  10.68  .0739    0.000   213    5    100.0   10 
 7/16/18 11:40a   60.2   60.6   60.2    89   56.9   9.0    NE   1.50  15.0   ENE   57.9   60.5   58.2   67.6  30.082  0.00  0.00   625     8.96    698     2.5  0.18   3.4   0.033   0.000   71.7    58   56.1   71.3  10.68  .0740    0.000   212    5    100.0   10 
 7/16/18 11:50a   60.8   60.8   60.1    90   57.8   9.0    NE   1.50  17.0    NE   58.7   61.2   59.1   68.9  30.082  0.00  0.00   666     9.55    752     2.7  0.19   3.1   0.029   0.000   71.7    58   56.1   71.3  10.68  .0740    0.000   213    5    100.0   10 
 7/16/18 12:00p   61.0   61.1   60.8    89   57.7   9.0    NE   1.50  15.0   NNE   58.9   61.4   59.3   69.2  30.083  0.00  0.00   673     9.65    717     3.1  0.22   3.5   0.028   0.000   71.6    58   56.0   71.2  10.69  .0740    0.013   212    5    100.0   10 
 7/16/18 12:10p   61.5   61.6   61.0    88   57.9   9.0   ENE   1.50  17.0   ENE   59.5   61.9   59.9   69.5  30.085  0.00  0.00   643     9.22    745     3.1  0.22   3.7   0.024   0.000   71.6    58   56.0   71.2  10.69  .0740    0.000   211    5    100.0   10 
 7/16/18 12:20p   61.3   61.7   61.3    88   57.7  10.0    NE   1.67  18.0   NNE   58.5   61.6   58.8   68.1  30.085  0.00  0.00   651     9.33    691     3.1  0.22   3.5   0.026   0.000   71.6    58   56.0   71.2  10.69  .0740    0.000   213    5    100.0   10 
 7/16/18 12:30p   61.2   61.3   61.0    88   57.6  10.0    NE   1.67  18.0    NE   58.3   61.5   58.6   68.0  30.086  0.00  0.00   659     9.45    712     3.0  0.21   3.3   0.026   0.000   71.5    58   55.9   71.0  10.69  .0740    0.000   213    5    100.0   10 
 7/16/18 12:40p   61.3   61.3   61.0    88   57.7  10.0    NE   1.67  16.0    NE   58.5   61.6   58.8   68.6  30.089  0.00  0.00   701    10.05    773     3.5  0.25   3.9   0.026   0.000   71.5    58   55.9   71.0  10.69  .0740    0.000   212    5    100.0   10 
 7/16/18 12:50p   61.4   61.5   61.3    88   57.8  10.0    NE   1.67  16.0    NE   58.6   61.8   59.0   69.0  30.085  0.00  0.00   758    10.87    788     3.8  0.27   4.3   0.025   0.000   71.5    58   55.9   71.0  10.69  .0740    0.000   213    5    100.0   10 
 7/16/18  1:00p   61.7   61.7   61.4    88   58.1  11.0    NE   1.83  17.0    NE   58.3   62.1   58.7   68.6  30.084  0.00  0.00   828    11.87    926     4.3  0.31   4.8   0.023   0.000   71.4    58   55.9   70.9  10.69  .0740    0.016   211    5    100.0   10 
 7/16/18  1:10p   62.5   62.5   61.7    87   58.6  10.0    NE   1.67  17.0    NE   59.9   63.0   60.4   70.3  30.083  0.00  0.00   889    12.74   1020     4.6  0.33   5.2   0.017   0.000   71.3    58   55.8   70.7  10.70  .0740    0.000   213    5    100.0   10 
 7/16/18  1:20p   62.4   62.6   62.4    86   58.2  11.0    NE   1.83  18.0    NE   59.1   62.8   59.5   68.2  30.084  0.00  0.00   930    13.33   1016     4.7  0.34   5.3   0.018   0.000   71.3    58   55.8   70.7  10.70  .0740    0.000   213    5    100.0   10 
 7/16/18  1:30p   62.7   62.8   62.4    85   58.1  10.0   ENE   1.67  15.0    NE   60.1   63.1   60.5   69.3  30.081  0.00  0.00   973    13.95   1013     5.2  0.37   5.4   0.016   0.000   71.3    58   55.8   70.7  10.70  .0740    0.000   212    5    100.0   10 
 7/16/18  1:40p   62.7   62.8   62.6    86   58.5  10.0    NE   1.67  18.0    NE   60.1   63.2   60.6   69.2  30.079  0.00  0.00   956    13.70    993     5.2  0.37   5.3   0.016   0.000   71.3    58   55.8   70.7  10.70  .0740    0.000   211    5    100.0   10 
 7/16/18  1:50p   63.2   63.2   62.7    85   58.6   9.0    NE   1.50  14.0   NNE   61.4   63.7   61.9   70.9  30.081  0.00  0.00   957    13.72   1009     5.0  0.36   5.2   0.012   0.000   71.3    59   56.2   70.8  10.90  .0740    0.000   214    5    100.0   10 
 7/16/18  2:00p   63.4   63.5   63.2    84   58.5  10.0    NE   1.67  16.0   NNE   60.9   63.9   61.4   70.4  30.077  0.00  0.00   921    13.20    969     5.0  0.36   5.2   0.011   0.000   71.3    59   56.2   70.8  10.90  .0740    0.021   213    5    100.0   10 
 7/16/18  2:10p   63.8   63.8   63.2    84   58.9  10.0    NE   1.67  16.0   NNE   61.4   64.4   62.0   70.6  30.078  0.00  0.00   932    13.36    972     4.9  0.35   5.0   0.008   0.000   71.4    59   56.3   71.0  10.89  .0740    0.000   211    5    100.0   10 
 7/16/18  2:20p   64.3   64.3   63.8    83   59.0   9.0    NE   1.50  15.0   NNE   62.8   64.9   63.4   73.1  30.077  0.00  0.00   900    12.90    916     4.9  0.35   5.0   0.005   0.000   71.6    59   56.5   71.3  10.89  .0739    0.000   214    5    100.0   10 
 7/16/18  2:30p   64.2   64.3   64.1    82   58.6   9.0    NE   1.50  16.0     N   62.6   64.8   63.2   72.1  30.075  0.00  0.00   906    12.99    939     4.7  0.34   4.9   0.006   0.000   71.7    58   56.1   71.3  10.68  .0739    0.000   212    5    100.0   10 
 7/16/18  2:40p   64.2   64.2   63.9    82   58.6  10.0   ENE   1.67  17.0    NE   61.8   64.8   62.4   71.2  30.076  0.00  0.00   890    12.76    916     4.6  0.33   4.8   0.006   0.000   71.8    58   56.2   71.5  10.68  .0739    0.000   212    5    100.0   10 
 7/16/18  2:50p   64.3   64.3   64.1    82   58.7  10.0    NE   1.67  17.0   ENE   62.0   64.9   62.6   71.3  30.073  0.00  0.00   880    12.61    889     4.4  0.31   4.5   0.005   0.000   71.9    58   56.3   71.6  10.67  .0739    0.000   213    5    100.0   10 
 7/16/18  3:00p   64.5   64.5   64.2    82   58.9  10.0    NE   1.67  16.0   ENE   62.2   65.1   62.8   71.5  30.071  0.00  0.00   869    12.46    907     4.2  0.30   4.3   0.003   0.000   72.0    58   56.4   71.7  10.67  .0739    0.021   213    5    100.0   10 
 7/16/18  3:10p   64.0   64.6   63.8    82   58.4  11.0    NE   1.83  17.0   NNE   60.9   64.5   61.4   70.1  30.068  0.00  0.00   866    12.41    889     4.0  0.29   4.1   0.007   0.000   72.1    58   56.5   71.9  10.67  .0738    0.000   211    5    100.0   10 
 7/16/18  3:20p   64.0   64.3   64.0    81   58.1   9.0    NE   1.50  16.0    NE   62.4   64.5   62.9   72.2  30.068  0.00  0.00   849    12.17    914     3.8  0.27   3.9   0.007   0.000   72.2    58   56.6   72.0  10.66  .0738    0.000   213    5    100.0   10 
 7/16/18  3:30p   63.9   64.0   63.9    81   58.0  10.0    NE   1.67  16.0   NNE   61.5   64.4   62.0   71.2  30.068  0.00  0.00   846    12.13    884     3.5  0.25   3.7   0.008   0.000   72.2    58   56.6   72.0  10.66  .0738    0.000   213    5    100.0   10 
 7/16/18  3:40p   64.0   64.0   63.8    81   58.1  10.0    NE   1.67  16.0   NNE   61.6   64.5   62.1   71.3  30.071  0.00  0.00   829    11.88    854     3.2  0.23   3.4   0.007   0.000   72.3    58   56.7   72.2  10.66  .0738    0.000   212    5    100.0   10 
 7/16/18  3:50p   64.3   64.3   63.8    82   58.7  10.0    NE   1.67  16.0    NE   62.0   64.9   62.6   72.4  30.068  0.00  0.00   839    12.03    889     3.0  0.21   3.2   0.005   0.000   72.4    58   56.8   72.3  10.65  .0738    0.000   213    5    100.0   10 
 7/16/18  4:00p   64.8   64.9   64.3    80   58.5  10.0    NE   1.67  16.0    NE   62.6   65.5   63.3   72.9  30.066  0.00  0.00   806    11.55    838     2.7  0.19   3.0   0.001   0.000   72.5    58   56.9   72.5  10.65  .0738    0.019   212    5    100.0   10 
 7/16/18  4:10p   64.1   64.7   64.1    80   57.8  10.0    NE   1.67  18.0    NE   61.7   64.6   62.2   71.6  30.061  0.00  0.00   774    11.10    840     2.3  0.16   2.8   0.006   0.000   72.5    58   56.9   72.5  10.65  .0738    0.000   214    5    100.0   10 
 7/16/18  4:20p   64.3   64.3   64.0    81   58.3  10.0    NE   1.67  17.0   ENE   62.0   64.9   62.6   72.9  30.063  0.00  0.00   801    11.48    856     2.1  0.15   2.4   0.005   0.000   72.6    58   57.0   72.6  10.65  .0737    0.000   212    5    100.0   10 
 7/16/18  4:30p   63.7   64.3   63.6    81   57.8  11.0    NE   1.83  19.0    NE   60.6   64.2   61.1   70.3  30.059  0.00  0.00   674     9.66    738     1.5  0.11   1.8   0.009   0.000   72.7    58   57.1   72.8  10.64  .0737    0.000   208    5    100.0   10 
 7/16/18  4:40p   63.6   63.7   63.3    82   58.0  11.0    NE   1.83  19.0    NE   60.5   64.1   61.0   70.1  30.057  0.00  0.00   660     9.46    721     1.2  0.09   1.6   0.010   0.000   72.8    58   57.2   72.9  10.64  .0737    0.000   212    5    100.0   10 
 7/16/18  4:50p   63.9   63.9   63.6    81   58.0  11.0    NE   1.83  18.0     N   60.8   64.4   61.3   70.4  30.054  0.00  0.00   622     8.92    779     0.6  0.04   1.2   0.008   0.000   72.9    58   57.3   73.1  10.63  .0737    0.000   212    5    100.0   10 
 7/16/18  5:00p   64.0   64.1   63.9    81   58.1  11.0    NE   1.83  18.0   NNE   60.9   64.5   61.4   71.6  30.056  0.00  0.00   705    10.11    738     0.3  0.02   0.9   0.007   0.000   72.9    58   57.3   73.1  10.63  .0737    0.016   211    5    100.0   10 
 7/16/18  5:10p   64.2   64.5   64.0    80   57.9  10.0   ENE   1.67  15.0    NE   61.8   64.7   62.3   72.0  30.057  0.00  0.00   632     9.06    773     0.0  0.00   0.0   0.006   0.000   73.0    58   57.3   73.2  10.63  .0737    0.000   212    5    100.0   10 
 7/16/18  5:20p   64.2   64.3   64.0    81   58.2  10.0    NE   1.67  20.0   NNE   61.8   64.8   62.4   72.3  30.057  0.00  0.00   611     8.76    717     0.0  0.00   0.0   0.006   0.000   73.1    58   57.4   73.4  10.63  .0736    0.000   213    5    100.0   10 
 7/16/18  5:30p   64.4   64.4   64.1    81   58.4   9.0    NE   1.50  15.0    NE   62.9   65.0   63.5   73.1  30.057  0.00  0.00   518     7.43    656     0.0  0.00   0.0   0.004   0.000   73.1    58   57.4   73.4  10.63  .0736    0.000   212    5    100.0   10 
 7/16/18  5:40p   63.8   64.4   63.8    81   57.9  10.0    NE   1.67  16.0    NE   61.4   64.3   61.9   71.3  30.058  0.00  0.00   538     7.71    673     0.0  0.00   0.0   0.008   0.000   73.2    58   57.5   73.5  10.62  .0736    0.000   210    5    100.0   10 
 7/16/18  5:50p   63.1   63.8   63.1    82   57.5  11.0   ENE   1.83  17.0   NNE   59.9   63.5   60.3   68.5  30.056  0.00  0.00   422     6.05    545     0.0  0.00   0.0   0.013   0.000   73.3    58   57.6   73.6  10.62  .0736    0.000   212    5    100.0   10 
 7/16/18  6:00p   63.0   63.4   63.0    82   57.4  10.0   ENE   1.67  15.0    NE   60.5   63.4   60.9   67.9  30.052  0.00  0.00   317     4.54    360     0.0  0.00   0.0   0.014   0.000   73.3    58   57.6   73.6  10.62  .0736    0.013   212    5    100.0   10 
 7/16/18  6:10p   62.3   63.0   62.3    83   57.1  10.0    NE   1.67  15.0   NNE   59.7   62.6   60.0   66.9  30.052  0.00  0.00   301     4.31    353     0.0  0.00   0.0   0.019   0.000   73.3    58   57.6   73.6  10.62  .0736    0.000   211    5    100.0   10 
 7/16/18  6:20p   62.0   62.4   62.0    84   57.1  10.0    NE   1.67  17.0   NNE   59.3   62.3   59.6   64.5  30.055  0.00  0.00   213     3.05    250     0.0  0.00   0.0   0.021   0.000   73.3    58   57.6   73.6  10.62  .0736    0.000   211    5    100.0   10 
 7/16/18  6:30p   61.7   62.0   61.6    85   57.1  10.0   ENE   1.67  15.0   NNE   58.9   62.0   59.2   63.4  30.050  0.00  0.00   180     2.58    204     0.0  0.00   0.0   0.023   0.000   73.3    58   57.6   73.6  10.62  .0736    0.000   213    5    100.0   10 
 7/16/18  6:40p   61.4   61.7   61.4    85   56.8  10.0    NE   1.67  17.0   ENE   58.6   61.6   58.8   62.1  30.051  0.00  0.00   147     2.11    158     0.0  0.00   0.0   0.025   0.000   73.3    58   57.6   73.6  10.62  .0736    0.000   213    5    100.0   10 
 7/16/18  6:50p   61.1   61.4   61.1    85   56.6   9.0   ENE   1.50  16.0    NE   59.0   61.3   59.2   61.8  30.050  0.00  0.00   115     1.65    128     0.0  0.00   0.0   0.027   0.000   73.3    58   57.6   73.6  10.62  .0736    0.000   212    5    100.0   10 
 7/16/18  7:00p   61.0   61.1   61.0    86   56.8   9.0    NE   1.50  17.0   ENE   58.9   61.2   59.1   61.4  30.047  0.00  0.00   104     1.49    118     0.0  0.00   0.0   0.028   0.000   73.2    58   57.5   73.5  10.62  .0736    0.005   213    5    100.0   10 
 7/16/18  7:10p   60.8   61.0   60.8    86   56.6   9.0    NE   1.50  15.0   ENE   58.7   61.0   58.9   60.9  30.047  0.00  0.00    92     1.32    105     0.0  0.00   0.0   0.029   0.000   73.2    58   57.5   73.5  10.62  .0736    0.000   213    5    100.0   10 
 7/16/18  7:20p   60.5   60.8   60.5    87   56.6  10.0    NE   1.67  15.0    NE   57.6   60.7   57.8   59.1  30.048  0.00  0.00    72     1.03     77     0.0  0.00   0.0   0.031   0.000   73.1    58   57.4   73.4  10.63  .0736    0.000   210    5    100.0   10 
 7/16/18  7:30p   60.3   60.5   60.3    87   56.4  10.0   ENE   1.67  15.0   ENE   57.3   60.5   57.5   58.5  30.050  0.00  0.00    62     0.89     67     0.0  0.00   0.0   0.033   0.000   73.1    58   57.4   73.4  10.63  .0736    0.000   213    5    100.0   10 
 7/16/18  7:40p   60.2   60.3   60.1    88   56.6  10.0   ENE   1.67  18.0     E   57.2   60.4   57.4   57.8  30.053  0.00  0.00    46     0.66     51     0.0  0.00   0.0   0.033   0.000   73.1    58   57.4   73.4  10.63  .0736    0.000   212    5    100.0   10 
 7/16/18  7:50p   60.1   60.2   60.1    88   56.5   8.0    NE   1.33  15.0   ENE   58.6   60.3   58.8   58.7  30.055  0.00  0.00    34     0.49     40     0.0  0.00   0.0   0.034   0.000   73.0    58   57.3   73.2  10.63  .0737    0.000   212    5    100.0   10 
 7/16/18  8:00p   59.9   60.2   59.9    88   56.3   8.0    NE   1.33  13.0   ENE   58.4   60.1   58.6   57.0  30.060  0.00  0.00    25     0.36     28     0.0  0.00   0.0   0.035   0.000   72.9    58   57.3   73.1  10.63  .0737    0.002   213    5    100.0   10 
 7/16/18  8:10p   59.9   59.9   59.8    88   56.3   8.0   ENE   1.33  14.0    NE   58.4   60.1   58.6   56.8  30.062  0.00  0.00    18     0.26     21     0.0  0.00   0.0   0.035   0.000   72.8    58   57.2   72.9  10.64  .0737    0.000   212    5    100.0   10 
 7/16/18  8:20p   59.8   59.9   59.8    88   56.2   7.0   ENE   1.17  12.0   ENE   59.0   60.0   59.2   57.2  30.060  0.00  0.00    14     0.20     16     0.0  0.00   0.0   0.036   0.000   72.7    58   57.1   72.8  10.64  .0737    0.000   212    5    100.0   10 
 7/16/18  8:30p   59.6   59.9   59.6    89   56.4   8.0   ENE   1.33  14.0   ENE   58.0   59.8   58.2   56.2  30.065  0.00  0.00     9     0.13     11     0.0  0.00   0.0   0.038   0.000   72.7    58   57.1   72.8  10.64  .0737    0.000   212    5    100.0   10 
 7/16/18  8:40p   59.3   59.5   59.3    89   56.1   8.0    NE   1.33  14.0   NNE   57.7   59.5   57.9   55.8  30.063  0.00  0.00     6     0.09      7     0.0  0.00   0.0   0.040   0.000   72.5    58   56.9   72.5  10.65  .0738    0.000   212    5    100.0   10 
 7/16/18  8:50p   59.3   59.3   59.3    89   56.1   7.0    NE   1.17  13.0   ENE   58.4   59.5   58.6   56.3  30.062  0.00  0.00     0     0.00      0     0.0  0.00   0.0   0.040   0.000   72.4    58   56.8   72.3  10.65  .0738    0.000   211    5    100.0   10 
 7/16/18  9:00p   59.3   59.4   59.3    90   56.4   7.0   ENE   1.17  11.0     E   58.4   59.5   58.6   56.3  30.060  0.00  0.00     0     0.00      0     0.0  0.00   0.0   0.040   0.000   72.4    58   56.8   72.3  10.65  .0738    0.001   212    5    100.0   10 
 7/16/18  9:10p   59.3   59.4   59.3    90   56.4   7.0    NE   1.17  13.0    NE   58.4   59.5   58.6   56.3  30.065  0.00  0.00     0     0.00      0     0.0  0.00   0.0   0.040   0.000   72.5    58   56.9   72.5  10.65  .0738    0.000   211    5    100.0   10 
 7/16/18  9:20p   59.2   59.3   59.2    90   56.3   6.0    NE   1.00  11.0     E   58.6   59.4   58.8   56.5  30.070  0.00  0.00     0     0.00      0     0.0  0.00   0.0   0.040   0.000   72.5    58   56.9   72.5  10.65  .0738    0.000   213    5    100.0   10 
 7/16/18  9:30p   59.1   59.2   59.0    90   56.2   7.0   ENE   1.17  14.0    NE   58.1   59.3   58.3   56.0  30.073  0.00  0.00     0     0.00      0     0.0  0.00   0.0   0.041   0.000   72.5    58   56.9   72.5  10.65  .0738    0.000   212    5    100.0   10 
 7/16/18  9:40p   59.0   59.1   59.0    90   56.1   6.0    NE   1.00  12.0   ENE   58.4   59.2   58.6   56.3  30.076  0.00  0.00     0     0.00      0     0.0  0.00   0.0   0.042   0.000   72.6    58   57.0   72.6  10.65  .0738    0.000   212    5    100.0   10 
 7/16/18  9:50p   58.9   59.1   58.9    90   56.0   6.0   ENE   1.00  11.0   NNE   58.3   59.1   58.5   56.2  30.075  0.00  0.00     0     0.00      0     0.0  0.00   0.0   0.042   0.000   72.6    58   57.0   72.6  10.65  .0738    0.000   212    5    100.0   10 
 7/16/18 10:00p   58.8   58.9   58.8    91   56.2   8.0   ENE   1.33  14.0   ENE   57.1   59.0   57.3   55.1  30.074  0.00  0.00     0     0.00      0     0.0  0.00   0.0   0.043   0.000   72.7    58   57.1   72.8  10.64  .0738    0.001   213    5    100.0   10 
 7/16/18 10:10p   59.0   59.0   58.9    91   56.4   6.0   ENE   1.00  13.0   NNE   58.4   59.2   58.6   56.3  30.077  0.00  0.00     0     0.00      0     0.0  0.00   0.0   0.042   0.000   72.7    58   57.1   72.8  10.64  .0738    0.000   212    5    100.0   10 
 7/16/18 10:20p   58.9   59.0   58.9    91   56.3   6.0   ENE   1.00  10.0    NE   58.3   59.1   58.5   56.2  30.072  0.00  0.00     0     0.00      0     0.0  0.00   0.0   0.042   0.000   72.7    58   57.1   72.8  10.64  .0738    0.000   213    5    100.0   10 
 7/16/18 10:30p   59.0   59.0   58.9    91   56.4   5.0   ENE   0.83  10.0    NE   58.8   59.2   59.0   56.7  30.073  0.00  0.00     0     0.00      0     0.0  0.00   0.0   0.042   0.000   72.7    58   57.1   72.8  10.64  .0738    0.000   211    5    100.0   10 
 7/16/18 10:40p   58.7   59.0   58.7    91   56.1   5.0    NE   0.83  12.0     E   58.4   58.9   58.6   56.3  30.075  0.00  0.00     0     0.00      0     0.0  0.00   0.0   0.044   0.000   72.8    58   57.2   72.9  10.64  .0737    0.000   213    5    100.0   10 
 7/16/18 10:50p   58.5   58.8   58.5    91   55.9   6.0    NE   1.00  10.0   ENE   57.8   58.7   58.0   55.7  30.073  0.00  0.00     0     0.00      0     0.0  0.00   0.0   0.045   0.000   72.8    58   57.2   72.9  10.64  .0737    0.000   209    5    100.0   10 
 7/16/18 11:00p   58.6   58.6   58.4    91   56.0   6.0   ENE   1.00  11.0   ENE   57.9   58.8   58.1   55.8  30.071  0.00  0.00     0     0.00      0     0.0  0.00   0.0   0.044   0.000   72.8    58   57.2   72.9  10.64  .0737    0.001   208    5    100.0   10 
 7/16/18 11:10p   58.5   58.6   58.5    91   55.9   5.0    NE   0.83  10.0   ENE   58.2   58.7   58.4   56.1  30.068  0.00  0.00     0     0.00      0     0.0  0.00   0.0   0.045   0.000   72.8    58   57.2   72.9  10.64  .0737    0.000   213    5    100.0   10 
 7/16/18 11:20p   58.2   58.5   58.2    92   55.9   5.0    NE   0.83  11.0   NNE   57.8   58.4   58.0   55.7  30.071  0.00  0.00     0     0.00      0     0.0  0.00   0.0   0.047   0.000   72.8    58   57.2   72.9  10.64  .0737    0.000   213    5    100.0   10 
 7/16/18 11:30p   58.2   58.3   58.2    92   55.9   5.0   ENE   0.83  11.0   NNE   57.8   58.4   58.0   55.7  30.072  0.00  0.00     0     0.00      0     0.0  0.00   0.0   0.047   0.000   72.8    58   57.2   72.9  10.64  .0737    0.000   211    5    100.0   10 
 7/16/18 11:40p   57.9   58.2   57.9    91   55.3   5.0   ENE   0.83  10.0    NE   57.5   58.0   57.6   55.3  30.074  0.00  0.00     0     0.00      0     0.0  0.00   0.0   0.049   0.000   72.9    58   57.3   73.1  10.63  .0737    0.000   213    5    100.0   10 
 7/16/18 11:50p   57.8   57.9   57.8    91   55.2   6.0    NE   1.00  11.0    NE   57.0   57.9   57.1   54.8  30.076  0.00  0.00     0     0.00      0     0.0  0.00   0.0   0.050   0.000   72.8    58   57.2   72.9  10.64  .0737    0.000   212    5    100.0   10 
 7/17/18 12:00a   58.1   58.1   57.8    92   55.8   5.0   ENE   0.83  10.0     E   57.7   58.3   57.9   55.6  30.078  0.00  0.00     0     0.00      0     0.0  0.00   0.0   0.048   0.000   72.8    58   57.2   72.9  10.64  .0737    0.001   212    5    100.0   10 
 7/17/18 12:10a   57.8   58.1   57.8    91   55.2   5.0    NE   0.83  11.0   NNE   57.4   57.9   57.5   55.2  30.079  0.00  0.00     0     0.00      0     0.0  0.00   0.0   0.050   0.000   72.9    58   57.3   73.1  10.63  .0737    0.000   210    5    100.0   10 
 7/17/18 12:20a   57.7   57.8   57.6    92   55.4   5.0   ENE   0.83   9.0   ENE   57.2   57.9   57.4   55.1  30.079  0.00  0.00     0     0.00      0     0.0  0.00   0.0   0.051   0.000   72.9    58   57.3   73.1  10.63  .0737    0.000   208    5    100.0   10 
 7/17/18 12:30a   57.9   57.9   57.7    92   55.6   5.0   ENE   0.83   9.0   NNE   57.5   58.1   57.7   55.4  30.079  0.00  0.00     0     0.00      0     0.0  0.00   0.0   0.049   0.000   72.9    58   57.3   73.1  10.63  .0737    0.000   214    5    100.0   10 
 7/17/18 12:40a   57.5   57.9   57.5    92   55.2   5.0   ENE   0.83   9.0    NE   57.0   57.7   57.2   54.9  30.079  0.00  0.00     0     0.00      0     0.0  0.00   0.0   0.052   0.000   72.9    58   57.3   73.1  10.63  .0737    0.000   213    5    100.0   10 
 7/17/18 12:50a   57.6   57.6   57.5    92   55.3   4.0   ENE   0.67   8.0     E   57.6   57.8   57.8   55.5  30.078  0.00  0.00     0     0.00      0     0.0  0.00   0.0   0.051   0.000   72.9    58   57.3   73.1  10.63  .0737    0.000   212    5    100.0   10 
 7/17/18  1:00a   57.7   57.7   57.6    92   55.4   4.0   ENE   0.67   9.0   NNE   57.7   57.9   57.9   55.6  30.081  0.00  0.00     0     0.00      0     0.0  0.00   0.0   0.051   0.000   72.8    58   57.2   72.9  10.64  .0738    0.000   209    5    100.0   10 
 7/17/18  1:10a   57.7   57.7   57.7    92   55.4   4.0   ENE   0.67   8.0     E   57.7   57.9   57.9   55.6  30.080  0.00  0.00     0     0.00      0     0.0  0.00   0.0   0.051   0.000   72.9    58   57.3   73.1  10.63  .0737    0.000   212    5    100.0   10 
 7/17/18  1:20a   57.8   57.8   57.7    92   55.5   4.0   ENE   0.67   9.0    NE   57.8   58.0   58.0   55.7  30.080  0.00  0.00     0     0.00      0     0.0  0.00   0.0   0.050   0.000   72.8    58   57.2   72.9  10.64  .0738    0.000   210    5    100.0   10 
 7/17/18  1:30a   57.9   58.0   57.8    92   55.6   5.0   ENE   0.83  10.0   ENE   57.5   58.1   57.7   55.4  30.076  0.00  0.00     0     0.00      0     0.0  0.00   0.0   0.049   0.000   72.8    58   57.2   72.9  10.64  .0737    0.000   211    5    100.0   10 
 7/17/18  1:40a   57.9   58.0   57.9    92   55.6   5.0   ENE   0.83  11.0   ENE   57.5   58.1   57.7   55.4  30.078  0.00  0.00     0     0.00      0     0.0  0.00   0.0   0.049   0.000   72.8    58   57.2   72.9  10.64  .0737    0.000   210    5    100.0   10 
 7/17/18  1:50a   57.8   58.0   57.8    92   55.5   4.0   ENE   0.67   9.0    NE   57.8   58.0   58.0   55.7  30.075  0.00  0.00     0     0.00      0     0.0  0.00   0.0   0.050   0.000   72.8    58   57.2   72.9  10.64  .0737    0.000   212    5    100.0   10 
 7/17/18  2:00a   57.8   57.8   57.8    92   55.5   4.0   ENE   0.67   9.0    NE   57.8   58.0   58.0   55.7  30.074  0.00  0.00     0     0.00      0     0.0  0.00   0.0   0.050   0.000   72.8    58   57.2   72.9  10.64  .0737    0.000   212    5    100.0   10 
 7/17/18  2:10a   57.9   57.9   57.8    92   55.6   3.0    NE   0.50  10.0   ENE   57.9   58.1   58.1   55.8  30.074  0.00  0.00     0     0.00      0     0.0  0.00   0.0   0.049   0.000   72.8    58   57.2   72.9  10.64  .0737    0.000   213    5    100.0   10 
 7/17/18  2:20a   57.8   57.9   57.8    92   55.5   4.0   ENE   0.67   8.0     E   57.8   58.0   58.0   55.7  30.077  0.00  0.00     0     0.00      0     0.0  0.00   0.0   0.050   0.000   72.8    58   57.2   72.9  10.64  .0737    0.000   212    5    100.0   10 
 7/17/18  2:30a   57.8   57.9   57.8    92   55.5   3.0   ENE   0.50   6.0    NE   57.8   58.0   58.0   55.7  30.081  0.00  0.00     0     0.00      0     0.0  0.00   0.0   0.050   0.000   72.7    58   57.1   72.8  10.64  .0738    0.000   213    5    100.0   10 
 7/17/18  2:40a   57.9   57.9   57.8    92   55.6   2.0    NE   0.33   5.0   ENE   57.9   58.1   58.1   55.8  30.081  0.00  0.00     0     0.00      0     0.0  0.00   0.0   0.049   0.000   72.7    58   57.1   72.8  10.64  .0738    0.000   210    5    100.0   10 
 7/17/18  2:50a   57.8   57.9   57.8    92   55.5   4.0   ENE   0.67   9.0    NE   57.8   58.0   58.0   55.7  30.079  0.00  0.00     0     0.00      0     0.0  0.00   0.0   0.050   0.000   72.7    58   57.1   72.8  10.64  .0738    0.000   213    5    100.0   10 
 7/17/18  3:00a   57.7   57.8   57.7    92   55.4   2.0   ENE   0.33   6.0     E   57.7   57.9   57.9   55.6  30.082  0.00  0.00     0     0.00      0     0.0  0.00   0.0   0.051   0.000   72.7    58   57.1   72.8  10.64  .0738    0.000   214    5    100.0   10 
 7/17/18  3:10a   57.6   57.7   57.5    92   55.3   3.0    NE   0.50   5.0   NNE   57.6   57.8   57.8   55.5  30.082  0.00  0.00     0     0.00      0     0.0  0.00   0.0   0.051   0.000   72.7    58   57.1   72.8  10.64  .0738    0.000   213    5    100.0   10 
 7/17/18  3:20a   57.6   57.6   57.6    92   55.3   3.0   ENE   0.50   7.0   ENE   57.6   57.8   57.8   55.5  30.083  0.00  0.00     0     0.00      0     0.0  0.00   0.0   0.051   0.000   72.7    58   57.1   72.8  10.64  .0738    0.000   210    5    100.0   10 
 7/17/18  3:30a   57.6   57.6   57.5    92   55.3   2.0   ENE   0.33   4.0   ENE   57.6   57.8   57.8   55.5  30.082  0.00  0.00     0     0.00      0     0.0  0.00   0.0   0.051   0.000   72.6    57   56.5   72.6  10.45  .0738    0.000   209    5    100.0   10 
 7/17/18  3:40a   57.1   57.6   57.1    92   54.8   3.0    NE   0.50   6.0   NNE   57.1   57.2   57.2   54.8  30.086  0.00  0.00     0     0.00      0     0.0  0.00   0.0   0.055   0.000   72.6    57   56.5   72.6  10.45  .0738    0.000   211    5    100.0   10 
 7/17/18  3:50a   57.1   57.1   57.1    92   54.8   2.0    NE   0.33   4.0    NE   57.1   57.2   57.2   54.8  30.086  0.00  0.00     0     0.00      0     0.0  0.00   0.0   0.055   0.000   72.6    57   56.5   72.6  10.45  .0738    0.000   213    5    100.0   10 
 7/17/18  4:00a   57.3   57.3   57.1    92   55.0   3.0   ENE   0.50   6.0   ENE   57.3   57.5   57.5   55.1  30.086  0.00  0.00     0     0.00      0     0.0  0.00   0.0   0.053   0.000   72.6    57   56.5   72.6  10.45  .0738    0.000   212    5    100.0   10 
 7/17/18  4:10a   57.1   57.3   57.1    92   54.8   4.0    NE   0.67   6.0    NE   57.1   57.2   57.2   54.8  30.086  0.00  0.00     0     0.00      0     0.0  0.00   0.0   0.055   0.000   72.6    57   56.5   72.6  10.45  .0738    0.000   209    5    100.0   10 
 7/17/18  4:20a   57.3   57.3   57.2    92   55.0   3.0   ENE   0.50   7.0     E   57.3   57.5   57.5   55.1  30.088  0.00  0.00     0     0.00      0     0.0  0.00   0.0   0.053   0.000   72.6    57   56.5   72.6  10.45  .0738    0.000   211    5    100.0   10 
 7/17/18  4:30a   57.4   57.5   57.3    92   55.1   3.0    NE   0.50   5.0   ENE   57.4   57.6   57.6   55.3  30.088  0.00  0.00     0     0.00      0     0.0  0.00   0.0   0.053   0.000   72.5    57   56.4   72.4  10.45  .0738    0.000   211    5    100.0   10 
 7/17/18  4:40a   57.3   57.5   57.3    92   55.0   2.0   ENE   0.33   4.0   ENE   57.3   57.5   57.5   55.1  30.090  0.00  0.00     0     0.00      0     0.0  0.00   0.0   0.053   0.000   72.5    57   56.4   72.4  10.45  .0739    0.000   211    5    100.0   10 
 7/17/18  4:50a   57.1   57.3   57.1    93   55.1   3.0   ENE   0.50   8.0   ENE   57.1   57.3   57.3   55.0  30.089  0.00  0.00     0     0.00      0     0.0  0.00   0.0   0.055   0.000   72.5    57   56.4   72.4  10.45  .0739    0.000   212    5    100.0   10 
 7/17/18  5:00a   57.1   57.2   57.1    92   54.8   3.0    NE   0.50   5.0    NE   57.1   57.2   57.2   54.8  30.093  0.00  0.00     0     0.00      0     0.0  0.00   0.0   0.055   0.000   72.5    57   56.4   72.4  10.45  .0739    0.000   212    5    100.0   10 
 7/17/18  5:10a   57.2   57.2   57.0    93   55.2   3.0   ENE   0.50   8.0   NNE   57.2   57.4   57.4   55.1  30.095  0.00  0.00     0     0.00      0     0.0  0.00   0.0   0.054   0.000   72.5    57   56.4   72.4  10.45  .0739    0.000   209    5    100.0   10 
 7/17/18  5:20a   57.3   57.3   57.2    93   55.3   3.0   ENE   0.50   8.0   ENE   57.3   57.5   57.5   55.2  30.096  0.00  0.00     0     0.00      0     0.0  0.00   0.0   0.053   0.000   72.5    57   56.4   72.4  10.45  .0739    0.000   213    5    100.0   10 
 7/17/18  5:30a   57.3   57.4   57.3    93   55.3   2.0   ENE   0.33   5.0    NE   57.3   57.5   57.5   55.2  30.095  0.00  0.00     0     0.00      0     0.0  0.00   0.0   0.053   0.000   72.4    57   56.3   72.3  10.45  .0739    0.000   211    5    100.0   10 
 7/17/18  5:40a   57.4   57.4   57.3    93   55.4   2.0    NE   0.33   4.0    NE   57.4   57.6   57.6   55.3  30.095  0.00  0.00     0     0.00      0     0.0  0.00   0.0   0.053   0.000   72.4    57   56.3   72.3  10.45  .0739    0.000   212    5    100.0   10 
 7/17/18  5:50a   57.3   57.4   57.3    93   55.3   2.0   ENE   0.33   5.0   ENE   57.3   57.5   57.5   55.2  30.097  0.00  0.00     0     0.00      0     0.0  0.00   0.0   0.053   0.000   72.4    57   56.3   72.3  10.45  .0739    0.000   213    5    100.0   10 
 7/17/18  6:00a   57.1   57.3   57.1    93   55.1   3.0    NE   0.50   5.0   NNE   57.1   57.3   57.3   55.0  30.097  0.00  0.00     0     0.00      0     0.0  0.00   0.0   0.055   0.000   72.4    57   56.3   72.3  10.45  .0739    0.000   210    5    100.0   10 
 7/17/18  6:10a   57.2   57.2   57.0    93   55.2   3.0   ENE   0.50   6.0   ENE   57.2   57.4   57.4   55.2  30.098  0.00  0.00     5     0.07      7     0.0  0.00   0.0   0.054   0.000   72.3    57   56.2   72.1  10.46  .0739    0.000   211    5    100.0   10 
 7/17/18  6:20a   57.2   57.2   57.2    93   55.2   3.0   ENE   0.50   6.0   NNE   57.2   57.4   57.4   55.3  30.101  0.00  0.00     9     0.13     11     0.0  0.00   0.0   0.054   0.000   72.3    57   56.2   72.1  10.46  .0739    0.000   214    5    100.0   10 
 7/17/18  6:30a   57.1   57.2   57.1    93   55.1   3.0    NE   0.50   8.0   ENE   57.1   57.3   57.3   55.2  30.102  0.00  0.00    12     0.17     12     0.0  0.00   0.0   0.055   0.000   72.3    57   56.2   72.1  10.46  .0739    0.000   213    5    100.0   10 
 7/17/18  6:40a   57.2   57.2   57.1    93   55.2   2.0   ENE   0.33   6.0     E   57.2   57.4   57.4   55.4  30.105  0.00  0.00    14     0.20     16     0.0  0.00   0.0   0.054   0.000   72.2    57   56.1   72.0  10.46  .0739    0.000   212    5    100.0   10 
 7/17/18  6:50a   57.4   57.4   57.2    93   55.4   2.0   ENE   0.33   4.0   ENE   57.4   57.6   57.6   56.7  30.108  0.00  0.00    20     0.29     23     0.0  0.00   0.0   0.053   0.000   72.2    57   56.1   72.0  10.46  .0740    0.000   207    5    100.0   10 
 7/17/18  7:00a   57.3   57.5   57.3    92   55.0   2.0   ENE   0.33   5.0    NE   57.3   57.5   57.5   56.8  30.110  0.00  0.00    24     0.34     26     0.0  0.00   0.0   0.053   0.000   72.2    58   56.6   72.0  10.66  .0739    0.000   213    5    100.0   10 
 7/17/18  7:10a   57.1   57.3   57.0    93   55.1   3.0    NE   0.50   5.0    NE   57.1   57.3   57.3   56.7  30.111  0.00  0.00    27     0.39     30     0.0  0.00   0.0   0.055   0.000   72.2    58   56.6   72.0  10.66  .0739    0.000   212    5    100.0   10 
 7/17/18  7:20a   57.2   57.2   57.1    93   55.2   2.0   ENE   0.33   5.0    NE   57.2   57.4   57.4   57.0  30.114  0.00  0.00    33     0.47     39     0.0  0.00   0.0   0.054   0.000   72.2    58   56.6   72.0  10.66  .0739    0.000   213    5    100.0   10 
 7/17/18  7:30a   57.4   57.4   57.2    93   55.4   2.0   ENE   0.33   4.0   ENE   57.4   57.6   57.6   57.5  30.114  0.00  0.00    41     0.59     44     0.0  0.00   0.0   0.053   0.000   72.1    58   56.5   71.9  10.67  .0740    0.000   211    5    100.0   10 
 7/17/18  7:40a   57.4   57.6   57.4    92   55.1   2.0   ENE   0.33   4.0    NE   57.4   57.6   57.6   57.6  30.117  0.00  0.00    45     0.65     46     0.0  0.00   0.0   0.053   0.000   72.1    58   56.5   71.9  10.67  .0740    0.000   213    5    100.0   10 
 7/17/18  7:50a   57.2   57.4   57.2    92   54.9   2.0    NE   0.33   4.0   NNE   57.2   57.3   57.3   57.4  30.118  0.00  0.00    50     0.72     54     0.0  0.00   0.0   0.054   0.000   72.1    58   56.5   71.9  10.67  .0740    0.000   209    5    100.0   10 
 7/17/18  8:00a   57.3   57.3   57.1    93   55.3   3.0   ENE   0.50   6.0     E   57.3   57.5   57.5   58.0  30.121  0.00  0.00    60     0.86     63     0.0  0.00   0.0   0.053   0.000   72.1    58   56.5   71.9  10.67  .0740    0.001   212    5    100.0   10 
 7/17/18  8:10a   57.6   57.6   57.3    92   55.3   3.0   ENE   0.50   7.0   ENE   57.6   57.8   57.8   58.7  30.123  0.00  0.00    73     1.05     76     0.0  0.00   0.0   0.051   0.000   72.0    58   56.4   71.7  10.67  .0740    0.000   210    5    100.0   10 
 7/17/18  8:20a   57.6   57.7   57.6    92   55.3   3.0    NE   0.50   6.0    NE   57.6   57.8   57.8   58.6  30.126  0.00  0.00    74     1.06     77     0.0  0.00   0.0   0.051   0.000   72.0    58   56.4   71.7  10.67  .0740    0.000   212    5    100.0   10 
 7/17/18  8:30a   57.5   57.7   57.5    92   55.2   3.0    NE   0.50   6.0    NE   57.5   57.7   57.7   58.8  30.126  0.00  0.00    84     1.20     86     0.0  0.00   0.0   0.052   0.000   72.0    58   56.4   71.7  10.67  .0740    0.000   210    5    100.0   10 
 7/17/18  8:40a   57.8   57.8   57.5    92   55.5   3.0   ENE   0.50   5.0    NE   57.8   58.0   58.0   59.4  30.127  0.00  0.00    95     1.36    104     0.0  0.00   0.0   0.050   0.000   72.0    57   55.9   71.7  10.47  .0740    0.000   212    5    100.0   10 
 7/17/18  8:50a   58.1   58.1   57.8    92   55.8   3.0   ENE   0.50   6.0   ENE   58.1   58.3   58.3   60.0  30.128  0.00  0.00   107     1.53    114     0.0  0.00   0.0   0.048   0.000   72.0    57   55.9   71.7  10.47  .0740    0.000   211    5    100.0   10 
 7/17/18  9:00a   58.3   58.3   58.2    92   56.0   3.0    NE   0.50   6.0     E   58.3   58.5   58.5   60.0  30.130  0.00  0.00   106     1.52    109     0.0  0.00   0.0   0.047   0.000   72.0    57   55.9   71.7  10.47  .0740    0.002   210    5    100.0   10 
 7/17/18  9:10a   58.3   58.3   58.3    92   56.0   3.0   ENE   0.50   6.0   ENE   58.3   58.5   58.5   60.4  30.130  0.00  0.00   122     1.75    128     0.0  0.00   0.0   0.047   0.000   71.9    57   55.8   71.5  10.47  .0741    0.000   210    5    100.0   10 
 7/17/18  9:20a   58.5   58.5   58.3    92   56.2   3.0    NE   0.50   6.0    NE   58.5   58.7   58.7   60.9  30.131  0.00  0.00   135     1.94    148     0.0  0.00   0.0   0.045   0.000   71.9    57   55.8   71.5  10.47  .0741    0.000   211    5    100.0   10 
 7/17/18  9:30a   58.7   58.7   58.5    91   56.1   3.0   ENE   0.50   7.0   ENE   58.7   58.9   58.9   61.3  30.130  0.00  0.00   146     2.09    151     0.0  0.00   0.0   0.044   0.000   72.0    57   55.9   71.7  10.47  .0740    0.000   212    5    100.0   10 
 7/17/18  9:40a   58.3   58.7   58.2    91   55.7   4.0   ENE   0.67   8.0   NNE   58.3   58.5   58.5   61.2  30.133  0.00  0.00   159     2.28    169     0.0  0.00   0.0   0.047   0.000   71.9    57   55.8   71.5  10.47  .0741    0.000   210    5    100.0   10 
 7/17/18  9:50a   58.8   58.8   58.3    91   56.2   4.0   ENE   0.67   8.0     E   58.8   59.0   59.0   62.1  30.132  0.00  0.00   177     2.54    213     0.0  0.00   0.0   0.043   0.000   71.9    57   55.8   71.5  10.47  .0741    0.000   212    5    100.0   10 
 7/17/18 10:00a   59.5   59.5   58.8    91   56.9   4.0   ENE   0.67   7.0     E   59.5   59.8   59.8   64.2  30.132  0.00  0.00   235     3.37    250     0.0  0.00   0.0   0.038   0.000   71.9    57   55.8   71.5  10.47  .0741    0.004   213    5    100.0   10 
 7/17/18 10:10a   60.1   60.1   59.5    90   57.2   3.0   ENE   0.50   9.0   ENE   60.1   60.4   60.4   65.0  30.130  0.00  0.00   249     3.57    253     0.0  0.00   0.0   0.034   0.000   72.0    57   55.9   71.7  10.47  .0740    0.000   211    5    100.0   10 
 7/17/18 10:20a   60.5   60.5   60.1    90   57.6   3.0   ENE   0.50   8.0   ENE   60.5   60.8   60.8   65.3  30.131  0.00  0.00   246     3.53    260     0.0  0.00   0.0   0.031   0.000   72.0    57   55.9   71.7  10.47  .0740    0.000   213    5    100.0   10 
 7/17/18 10:30a   61.0   61.0   60.6    89   57.7   4.0   ENE   0.67   9.0   ENE   61.0   61.4   61.4   66.0  30.133  0.00  0.00   253     3.63    267     0.0  0.00   0.0   0.028   0.000   72.0    57   55.9   71.7  10.47  .0740    0.000   213    5    100.0   10 
 7/17/18 10:40a   61.1   61.2   61.0    88   57.5   4.0    NE   0.67   9.0    NE   61.1   61.4   61.4   65.9  30.136  0.00  0.00   254     3.64    262     0.0  0.00   0.0   0.027   0.000   72.0    57   55.9   71.7  10.47  .0741    0.000   210    5    100.0   10 
 7/17/18 10:50a   61.2   61.2   61.1    88   57.6   5.0    NE   0.83  10.0   NNE   61.2   61.5   61.5   66.9  30.136  0.00  0.00   296     4.24    315     0.0  0.00   0.0   0.026   0.000   72.0    57   55.9   71.7  10.47  .0741    0.000   213    5    100.0   10 
 7/17/18 11:00a   61.5   61.6   61.2    87   57.6   4.0    NE   0.67   9.0    NE   61.5   61.8   61.8   67.9  30.133  0.00  0.00   332     4.76    371     0.0  0.00   0.0   0.024   0.000   72.1    57   56.0   71.8  10.47  .0740    0.006   211    5    100.0   10 
 7/17/18 11:10a   61.8   61.8   61.5    86   57.6   6.0    NE   1.00  10.0    NE   61.8   62.1   62.1   69.4  30.138  0.00  0.00   397     5.69    432     0.0  0.00   0.0   0.022   0.000   72.1    57   56.0   71.8  10.47  .0740    0.000   211    5    100.0   10 
 7/17/18 11:20a   61.8   61.8   61.6    87   57.9   6.0    NE   1.00  11.0    NE   61.8   62.2   62.2   68.7  30.143  0.00  0.00   357     5.12    415     0.0  0.00   0.0   0.022   0.000   72.2    57   56.1   72.0  10.46  .0740    0.000   212    5    100.0   10 
 7/17/18 11:30a   62.4   62.4   61.8    86   58.2   6.0    NE   1.00  11.0    NE   62.4   62.8   62.8   69.8  30.141  0.00  0.00   385     5.52    418     0.0  0.00   0.0   0.018   0.000   72.2    57   56.1   72.0  10.46  .0740    0.000   208    5    100.0   10 
 7/17/18 11:40a   62.7   62.7   62.4    85   58.1   6.0    NE   1.00  10.0   NNE   62.7   63.1   63.1   70.5  30.143  0.00  0.00   406     5.82    425     0.1  0.01   0.6   0.016   0.000   72.2    57   56.1   72.0  10.46  .0740    0.000   213    5    100.0   10 
 7/17/18 11:50a   63.3   63.3   62.7    85   58.7   5.0    NE   0.83  10.0    NE   63.3   63.8   63.8   72.1  30.141  0.00  0.00   460     6.59    496     1.2  0.09   1.5   0.012   0.000   72.2    57   56.1   72.0  10.46  .0740    0.000   210    5    100.0   10 
 7/17/18 12:00p   64.0   64.0   63.3    84   59.1   5.0    NE   0.83  12.0   ENE   64.0   64.6   64.6   73.0  30.143  0.00  0.00   468     6.71    485     1.5  0.11   1.7   0.007   0.000   72.3    57   56.2   72.1  10.46  .0740    0.009   211    5    100.0   10 
 7/17/18 12:10p   64.3   64.3   64.0    82   58.7   6.0    NE   1.00  12.0    NE   64.3   64.9   64.9   74.5  30.142  0.00  0.00   552     7.91    838     2.6  0.19   4.0   0.005   0.000   72.3    57   56.2   72.1  10.46  .0740    0.000   213    5    100.0   10 
 7/17/18 12:20p   64.4   64.4   64.2    82   58.8   8.0    NE   1.33  14.0   NNE   63.7   65.0   64.3   74.5  30.146  0.00  0.00   663     9.50    729     3.9  0.28   5.0   0.004   0.000   72.4    57   56.3   72.3  10.45  .0740    0.000   211    5    100.0   10 
 7/17/18 12:30p   64.5   64.5   64.1    81   58.5   7.0    NE   1.17  13.0    NE   64.5   65.1   65.1   75.8  30.145  0.00  0.00   665     9.53    745     4.1  0.29   5.1   0.003   0.000   72.5    57   56.4   72.4  10.45  .0740    0.000   211    5    100.0   10 
 7/17/18 12:40p   65.2   65.2   64.5    80   58.9   7.0    NE   1.17  14.0    NE   65.2   65.9   65.9   76.5  30.144  0.00  0.00   653     9.36    696     5.1  0.36   7.3   0.000   0.001   72.5    57   56.4   72.4  10.45  .0740    0.000   210    5    100.0   10 
 7/17/18 12:50p   65.0   65.2   65.0    79   58.3   8.0   NNE   1.33  14.0   NNE   64.4   65.6   65.0   75.9  30.144  0.00  0.00   797    11.43    884     5.6  0.40   7.0   0.000   0.000   72.6    57   56.5   72.6  10.45  .0740    0.000   213    5    100.0   10 
 7/17/18  1:00p   63.2   65.0   63.2    79   56.6   6.0     N   1.00  10.0   ENE   63.2   63.5   63.5   74.9  30.146  0.00  0.00   744    10.67    772     5.0  0.36   5.9   0.012   0.000   72.6    57   56.5   72.6  10.45  .0740    0.017   211    5    100.0   10 
 7/17/18  1:10p   63.9   63.9   62.8    82   58.3   7.0   NNE   1.17  12.0   NNE   63.9   64.4   64.4   75.7  30.146  0.00  0.00   767    11.00    933     5.0  0.36   6.1   0.008   0.000   72.6    57   56.5   72.6  10.45  .0740    0.000   212    5    100.0   10 
 7/17/18  1:20p   65.7   65.7   64.0    81   59.7   8.0    NE   1.33  13.0   NNE   65.1   66.6   66.0   75.4  30.149  0.00  0.00   963    13.80   1169     6.0  0.43   6.8   0.000   0.005   72.7    57   56.6   72.7  10.44  .0740    0.000   213    5    100.0   10 
 7/17/18  1:30p   65.4   65.9   65.4    79   58.7   6.0    NE   1.00  10.0    NE   65.4   66.1   66.1   77.7  30.148  0.00  0.00   841    12.06    884     6.0  0.43   7.0   0.000   0.003   72.7    57   56.6   72.7  10.44  .0740    0.000   211    5    100.0   10 
 7/17/18  1:40p   66.5   66.5   65.4    80   60.1   7.0    NE   1.17  11.0     N   66.5   67.5   67.5   79.5  30.147  0.00  0.00  1130    16.20   1215     6.5  0.46   7.0   0.000   0.010   72.8    57   56.7   72.9  10.44  .0739    0.000   213    5    100.0   10 
 7/17/18  1:50p   66.8   67.0   66.5    77   59.4   8.0    NE   1.33  11.0   NNE   66.2   67.6   67.0   77.0  30.146  0.00  0.00   995    14.26   1046     5.8  0.41   6.9   0.000   0.013   72.9    57   56.8   73.0  10.43  .0739    0.000   210    5    100.0   10 
 7/17/18  2:00p   66.2   66.8   66.1    77   58.8   8.0    NE   1.33  13.0    NE   65.6   66.9   66.3   77.2  30.143  0.00  0.00   767    11.00    844     5.5  0.39   6.3   0.000   0.008   72.9    57   56.8   73.0  10.43  .0739    0.021   213    5    100.0   10 
 7/17/18  2:10p   65.8   66.2   65.8    77   58.4  10.0    NE   1.67  13.0   NNE   63.8   66.4   64.4   73.3  30.146  0.00  0.00   949    13.60    984     5.8  0.41   6.0   0.000   0.006   72.9    57   56.8   73.0  10.43  .0739    0.000   214    5    100.0   10 
 7/17/18  2:20p   66.2   66.2   65.8    77   58.8   9.0    NE   1.50  13.0    NE   64.9   66.9   65.6   74.9  30.149  0.00  0.00   945    13.55    979     5.6  0.40   5.8   0.000   0.008   72.9    57   56.8   73.0  10.43  .0739    0.000   212    5    100.0   10 
 7/17/18  2:30p   66.1   66.3   66.0    77   58.7   8.0    NE   1.33  11.0    NE   65.5   66.8   66.2   75.6  30.149  0.00  0.00   915    13.12    932     5.4  0.39   5.5   0.000   0.008   72.8    57   56.7   72.9  10.44  .0739    0.000   212    5    100.0   10 
 7/17/18  2:40p   65.8   66.0   65.8    78   58.7   7.0    NE   1.17  11.0    NE   65.8   66.5   66.5   76.3  30.148  0.00  0.00   897    12.86    923     5.1  0.36   5.3   0.000   0.006   72.7    57   56.6   72.7  10.44  .0740    0.000   211    5    100.0   10 
 7/17/18  2:50p   66.2   66.2   65.7    77   58.8   7.0    NE   1.17  10.0    NE   66.2   66.9   66.9   77.2  30.147  0.00  0.00   914    13.10    979     4.9  0.35   5.1   0.000   0.008   72.7    57   56.6   72.7  10.44  .0740    0.000   213    5    100.0   10 
 7/17/18  3:00p   66.8   66.8   66.2    77   59.4   8.0    NE   1.33  12.0   NNE   66.2   67.6   67.0   76.7  30.146  0.00  0.00   863    12.37    984     4.6  0.33   5.0   0.000   0.013   72.7    57   56.6   72.7  10.44  .0740    0.021   213    5    100.0   10 
 7/17/18  3:10p   66.6   66.9   66.5    77   59.2   8.0    NE   1.33  12.0    NE   66.0   67.4   66.8   76.7  30.147  0.00  0.00   879    12.60    912     4.3  0.31   4.8   0.000   0.011   72.7    57   56.6   72.7  10.44  .0740    0.000   211    5    100.0   10 
 7/17/18  3:20p   66.5   66.5   66.2    77   59.1   8.0    NE   1.33  12.0    NE   65.9   67.3   66.7   77.2  30.147  0.00  0.00   793    11.37    930     4.3  0.31   4.6   0.000   0.010   72.8    57   56.7   72.9  10.44  .0739    0.000   212    5    100.0   10 
 7/17/18  3:30p   65.6   66.8   65.4    78   58.6   7.0    NE   1.17  10.0     N   65.6   66.3   66.3   76.7  30.145  0.00  0.00   845    12.11    867     4.1  0.29   4.2   0.000   0.004   72.8    57   56.7   72.9  10.44  .0739    0.000   211    5    100.0   10 
Email: AdamSPAM@StormwatchersRetreat.com (To send me email remove the word 'SPAM' from my email address.)